This is the latest recevied weather packets stored in our database for station/object KB1PVH-13. If no packets are shown the sender has not sent any weather packets the latest 10 day(s).
| Time | Temp. | Humidity | Pressure | Rain* | Wind** | Luminosity | Snow |
|---|---|---|---|---|---|---|---|
| 1777275617 | 2.22° C | 86% | 938 hPa | 0 mm | - | - | - |
| 1777273217 | 2.78° C | 84% | 937.8 hPa | 0 mm | - | - | - |
| 1777267817 | 3.89° C | 79% | 938 hPa | 0 mm | - | - | - |
| 1777267217 | 3.89° C | 80% | 938.1 hPa | 0 mm | - | - | - |
| 1777264817 | 4.44° C | 76% | 938.2 hPa | 0 mm | - | - | - |
| 1777264216 | 4.44° C | 74% | 938.1 hPa | 0 mm | - | - | - |
| 1777263616 | 5° C | 73% | 938.1 hPa | 0 mm | - | - | - |
| 1777260016 | 6.11° C | 70% | 937.7 hPa | 0 mm | - | - | - |
| 1777259438 | 6.11° C | 69% | 937.7 hPa | 0 mm | - | - | - |
| 1777254616 | 7.78° C | 61% | 937.9 hPa | 0 mm | - | - | - |
| 1777254016 | 7.78° C | 60% | 937.8 hPa | 0 mm | - | - | - |
| 1777248016 | 12.22° C | 45% | 937 hPa | 0 mm | - | - | - |
| 1777246257 | 12.78° C | 42% | 936.5 hPa | 0 mm | - | - | - |
| 1777233637 | 18.33° C | 32% | 935.5 hPa | 0 mm | - | - | - |
| 1777225216 | 16.67° C | 32% | 935.8 hPa | 0 mm | - | - | - |
| 1777224016 | 15.56° C | 36% | 936 hPa | 0 mm | - | - | - |
| 1777222815 | 15.56° C | 38% | 936 hPa | 0 mm | - | - | - |
| 1777219839 | 14.44° C | 41% | 936.3 hPa | 0 mm | - | - | - |
| 1777219217 | 13.89° C | 47% | 936.2 hPa | 0 mm | - | - | - |
| 1777216217 | 12.22° C | 48% | 936.1 hPa | 0 mm | - | - | - |
| 1777214417 | 11.67° C | 51% | 936.3 hPa | 0 mm | - | - | - |
| 1777213838 | 11.67° C | 52% | 936.3 hPa | 0 mm | - | - | - |
| 1777212617 | 10.56° C | 60% | 936.1 hPa | 0 mm | - | - | - |
| 1777207237 | 7.78° C | 75% | 935.5 hPa | 0 mm | - | - | - |
| 1777205417 | 7.22° C | 77% | 935.2 hPa | 0 mm | - | - | - |
* Rain latest hour (hover to see other rain measurements)
** Current wind speed in m/s (hover to see current wind gust speed)